Terminal Aerodrome Forecast
Issued by NWS

Current Version | Previous Version | Text Only | Print | Product List | Glossary Off
Versions: 1 2 3 4 5 6 7 8 9 10 11 12 13 14 15 16 17 18 19

000
FTUS41 KPBZ 201100
TAFMGW
TAF
KMGW 201128Z 2012/2112 19003KT P6SM OVC200
     FM201500 22008KT P6SM BKN100
     FM210000 20005KT P6SM VCSH OVC050=

USA.gov is the U.S. government's official web portal to all federal, state and local government web resources and services.